Terminal Aerodrome Forecast
Issued by NWS Sterling, VA

Current Version | Previous Version | Graphics & Text | Print | Product List | Glossary Off
Versions: 1 2 3 4 5 6 7 8 9 10 11 12 13 14 15 16 17 18 19 20 21 22 23 24 25 26 27 28 29 30 31

000
FTUS41 KLWX 191126
TAFIAD
TAF
KIAD 191126Z 1912/2018 18007KT 6SM -RA BR OVC045
     FM191300 18006KT P6SM VCSH BKN035
     FM191500 19009KT P6SM OVC020
     FM192000 19009KT P6SM OVC015
     FM200300 19007KT P6SM SCT008 BKN035 WS020/22040KT
     FM201200 20008KT P6SM BKN250=

USA.gov is the U.S. government's official web portal to all federal, state and local government web resources and services.